createdAt,value
2022-12-26T00:09:36.165Z,96002.28
2022-12-26T00:24:37.536Z,96006.06
2022-12-26T00:39:38.907Z,96025.81
2022-12-26T00:54:40.261Z,96028.81
2022-12-26T01:09:41.736Z,96011.50
2022-12-26T01:24:43.157Z,96021.78
2022-12-26T01:39:44.540Z,96012.47
2022-12-26T01:54:46.026Z,96026.63
2022-12-26T02:09:47.385Z,96031.19
2022-12-26T02:24:48.774Z,96019.41
2022-12-26T02:39:50.106Z,96021.38
2022-12-26T02:55:10.411Z,96028.91
2022-12-26T03:10:30.584Z,96031.34
2022-12-26T03:25:50.579Z,96031.16
2022-12-26T03:41:10.535Z,96008.81
2022-12-26T03:56:32.741Z,96008.06
2022-12-26T04:11:53.223Z,96023.31
2022-12-26T04:27:13.341Z,96031.31
2022-12-26T04:42:33.229Z,96050.03
2022-12-26T04:57:34.612Z,96032.22
2022-12-26T05:12:35.999Z,96039.56
2022-12-26T05:27:56.105Z,96041.91
2022-12-26T05:42:57.539Z,96045.16
2022-12-26T05:57:58.967Z,96038.44
2022-12-26T06:13:01.488Z,96057.97
2022-12-26T06:28:02.856Z,96052.44
2022-12-26T06:43:05.109Z,96054.56
2022-12-26T06:58:06.596Z,96052.75
2022-12-26T07:13:07.939Z,96052.78
2022-12-26T07:28:09.438Z,96072.91
2022-12-26T07:43:10.933Z,96072.78
2022-12-26T07:58:12.339Z,96073.19
2022-12-26T08:13:13.725Z,96067.47
2022-12-26T08:28:15.073Z,96075.00
2022-12-26T08:58:37.881Z,96119.59
2022-12-26T09:13:39.293Z,96131.66
2022-12-26T09:28:40.696Z,96195.28
2022-12-26T09:43:48.275Z,96214.16
2022-12-26T09:58:51.422Z,96225.94
2022-12-26T10:13:52.787Z,96244.31
2022-12-26T10:28:54.144Z,96251.25
2022-12-26T10:43:55.561Z,96225.31
2022-12-26T10:58:56.911Z,96258.41
2022-12-26T11:14:02.051Z,96266.38
2022-12-26T11:29:04.079Z,96241.16
2022-12-26T11:44:05.496Z,96208.53
2022-12-26T11:59:06.894Z,96210.06
2022-12-26T12:14:08.247Z,96214.81
2022-12-26T12:29:09.615Z,96220.50
2022-12-26T12:44:10.973Z,96196.84
2022-12-26T12:59:13.377Z,96218.13
2022-12-26T13:14:14.725Z,96227.03
2022-12-26T13:29:16.125Z,96229.09
2022-12-26T13:44:17.505Z,96209.56
2022-12-26T13:59:18.969Z,96197.66
2022-12-26T14:14:20.362Z,96204.00
2022-12-26T14:29:21.843Z,96186.53
2022-12-26T14:44:23.210Z,96193.88
2022-12-26T14:59:24.568Z,96183.56
2022-12-26T15:14:26.054Z,96172.78
2022-12-26T15:29:27.423Z,96177.19
2022-12-26T15:44:28.879Z,96179.13
2022-12-26T15:59:30.364Z,96194.25
2022-12-26T16:14:31.819Z,96180.59
2022-12-26T16:29:33.223Z,96188.06
2022-12-26T16:44:34.592Z,96189.66
2022-12-26T16:59:35.949Z,96194.56
2022-12-26T17:14:37.305Z,96173.88
2022-12-26T17:29:38.694Z,96188.16
2022-12-26T17:44:40.097Z,96221.84
2022-12-26T17:59:41.430Z,96220.59
2022-12-26T18:14:43.946Z,96230.50
2022-12-26T18:29:45.363Z,96221.34
2022-12-26T18:44:46.730Z,96230.34
2022-12-26T18:59:48.467Z,96335.19
2022-12-26T19:14:49.957Z,96303.94
2022-12-26T19:29:51.320Z,96336.72
2022-12-26T19:44:52.705Z,96369.66
2022-12-26T19:59:54.105Z,96408.41
2022-12-26T20:14:55.477Z,96440.28
2022-12-26T20:29:56.833Z,96456.16
2022-12-26T20:44:58.205Z,96465.88
2022-12-26T20:59:59.561Z,96495.00
2022-12-26T21:15:00.990Z,96517.53
2022-12-26T21:30:02.418Z,96526.59
2022-12-26T21:45:03.771Z,96570.16
2022-12-26T22:00:05.135Z,96585.56
2022-12-26T22:15:26.570Z,96614.59
2022-12-26T22:30:28.074Z,96645.66
2022-12-26T22:45:29.446Z,96661.66
2022-12-26T23:00:30.791Z,96676.84
2022-12-26T23:15:32.145Z,96711.25
2022-12-26T23:30:33.515Z,96726.44
2022-12-26T23:45:34.880Z,96734.78
